sensor_id;sensor_type;location;lat;lon;timestamp;P1;durP1;ratioP1;P2;durP2;ratioP2
35803;SDS011;21924;51.934;7.414;2022-12-24T00:00:36;22.70;;;5.45;;
35803;SDS011;21924;51.934;7.414;2022-12-24T00:03:21;20.27;;;6.03;;
35803;SDS011;21924;51.934;7.414;2022-12-24T00:06:06;15.48;;;5.13;;
35803;SDS011;21924;51.934;7.414;2022-12-24T00:08:52;20.38;;;4.78;;
35803;SDS011;21924;51.934;7.414;2022-12-24T00:11:36;23.45;;;6.05;;
35803;SDS011;21924;51.934;7.414;2022-12-24T00:14:20;22.52;;;5.60;;
35803;SDS011;21924;51.934;7.414;2022-12-24T00:17:04;21.60;;;6.65;;
35803;SDS011;21924;51.934;7.414;2022-12-24T00:19:49;24.80;;;5.13;;
35803;SDS011;21924;51.934;7.414;2022-12-24T00:22:33;16.33;;;5.30;;
35803;SDS011;21924;51.934;7.414;2022-12-24T00:25:17;18.90;;;5.18;;
35803;SDS011;21924;51.934;7.414;2022-12-24T00:28:01;17.15;;;5.35;;
35803;SDS011;21924;51.934;7.414;2022-12-24T00:30:46;13.52;;;5.25;;
35803;SDS011;21924;51.934;7.414;2022-12-24T00:33:30;20.63;;;4.78;;
35803;SDS011;21924;51.934;7.414;2022-12-24T00:36:14;17.60;;;4.68;;
35803;SDS011;21924;51.934;7.414;2022-12-24T00:39:00;27.55;;;5.07;;
35803;SDS011;21924;51.934;7.414;2022-12-24T00:41:44;31.67;;;5.57;;
35803;SDS011;21924;51.934;7.414;2022-12-24T00:44:28;34.03;;;6.50;;
35803;SDS011;21924;51.934;7.414;2022-12-24T00:47:13;24.80;;;5.15;;
35803;SDS011;21924;51.934;7.414;2022-12-24T00:49:57;23.27;;;7.47;;
35803;SDS011;21924;51.934;7.414;2022-12-24T00:52:41;23.25;;;5.70;;
35803;SDS011;21924;51.934;7.414;2022-12-24T00:55:26;24.70;;;5.40;;
35803;SDS011;21924;51.934;7.414;2022-12-24T00:58:10;26.08;;;6.25;;
35803;SDS011;21924;51.934;7.414;2022-12-24T01:00:54;22.58;;;5.57;;
35803;SDS011;21924;51.934;7.414;2022-12-24T01:03:38;26.98;;;7.72;;
35803;SDS011;21924;51.934;7.414;2022-12-24T01:06:23;23.55;;;5.82;;
35803;SDS011;21924;51.934;7.414;2022-12-24T01:09:07;22.85;;;6.00;;
35803;SDS011;21924;51.934;7.414;2022-12-24T01:11:51;17.23;;;6.38;;
35803;SDS011;21924;51.934;7.414;2022-12-24T01:14:36;24.40;;;6.75;;
35803;SDS011;21924;51.934;7.414;2022-12-24T01:17:21;23.30;;;6.25;;
35803;SDS011;21924;51.934;7.414;2022-12-24T01:20:06;32.55;;;6.32;;
35803;SDS011;21924;51.934;7.414;2022-12-24T01:22:52;25.70;;;5.75;;
35803;SDS011;21924;51.934;7.414;2022-12-24T01:25:37;23.83;;;6.22;;
35803;SDS011;21924;51.934;7.414;2022-12-24T01:28:22;32.95;;;7.22;;
35803;SDS011;21924;51.934;7.414;2022-12-24T01:31:10;29.52;;;6.43;;
35803;SDS011;21924;51.934;7.414;2022-12-24T01:33:55;30.70;;;6.53;;
35803;SDS011;21924;51.934;7.414;2022-12-24T01:36:40;34.17;;;6.50;;
35803;SDS011;21924;51.934;7.414;2022-12-24T01:39:24;28.88;;;6.18;;
35803;SDS011;21924;51.934;7.414;2022-12-24T01:42:18;35.00;;;6.88;;
35803;SDS011;21924;51.934;7.414;2022-12-24T01:53:52;31.40;;;7.35;;
35803;SDS011;21924;51.934;7.414;2022-12-24T01:56:44;36.30;;;6.93;;
35803;SDS011;21924;51.934;7.414;2022-12-24T01:59:32;34.67;;;7.38;;
35803;SDS011;21924;51.934;7.414;2022-12-24T02:02:17;23.83;;;6.47;;
35803;SDS011;21924;51.934;7.414;2022-12-24T02:07:48;31.55;;;6.82;;
35803;SDS011;21924;51.934;7.414;2022-12-24T02:10:33;38.50;;;6.20;;
35803;SDS011;21924;51.934;7.414;2022-12-24T02:13:18;23.77;;;6.30;;
35803;SDS011;21924;51.934;7.414;2022-12-24T02:16:15;40.03;;;8.40;;
35803;SDS011;21924;51.934;7.414;2022-12-24T02:19:07;36.83;;;7.50;;
35803;SDS011;21924;51.934;7.414;2022-12-24T02:25:09;36.30;;;7.53;;
35803;SDS011;21924;51.934;7.414;2022-12-24T02:30:42;41.22;;;7.45;;
35803;SDS011;21924;51.934;7.414;2022-12-24T02:33:48;30.33;;;6.97;;
35803;SDS011;21924;51.934;7.414;2022-12-24T02:36:49;22.08;;;7.25;;
35803;SDS011;21924;51.934;7.414;2022-12-24T02:42:36;16.52;;;5.75;;
35803;SDS011;21924;51.934;7.414;2022-12-24T02:45:30;36.17;;;6.13;;
35803;SDS011;21924;51.934;7.414;2022-12-24T02:48:16;47.13;;;7.22;;
35803;SDS011;21924;51.934;7.414;2022-12-24T03:00:05;29.20;;;6.97;;
35803;SDS011;21924;51.934;7.414;2022-12-24T03:03:06;20.33;;;6.38;;
35803;SDS011;21924;51.934;7.414;2022-12-24T03:06:11;32.92;;;8.02;;
35803;SDS011;21924;51.934;7.414;2022-12-24T03:12:12;29.40;;;9.07;;
35803;SDS011;21924;51.934;7.414;2022-12-24T03:15:01;34.47;;;7.93;;
35803;SDS011;21924;51.934;7.414;2022-12-24T03:20:39;35.40;;;6.63;;
35803;SDS011;21924;51.934;7.414;2022-12-24T03:23:26;30.77;;;7.30;;
35803;SDS011;21924;51.934;7.414;2022-12-24T03:26:11;33.90;;;6.63;;
35803;SDS011;21924;51.934;7.414;2022-12-24T03:28:57;32.38;;;6.65;;
35803;SDS011;21924;51.934;7.414;2022-12-24T03:31:46;21.92;;;5.88;;
35803;SDS011;21924;51.934;7.414;2022-12-24T03:34:32;35.72;;;7.38;;
35803;SDS011;21924;51.934;7.414;2022-12-24T03:37:17;39.03;;;7.80;;
35803;SDS011;21924;51.934;7.414;2022-12-24T03:40:01;25.02;;;7.10;;
35803;SDS011;21924;51.934;7.414;2022-12-24T03:42:46;30.08;;;7.18;;
35803;SDS011;21924;51.934;7.414;2022-12-24T03:45:30;28.73;;;6.20;;
35803;SDS011;21924;51.934;7.414;2022-12-24T03:48:15;30.65;;;6.10;;
35803;SDS011;21924;51.934;7.414;2022-12-24T03:50:59;40.38;;;8.80;;
35803;SDS011;21924;51.934;7.414;2022-12-24T03:53:43;24.77;;;6.38;;
35803;SDS011;21924;51.934;7.414;2022-12-24T03:56:28;26.92;;;6.50;;
35803;SDS011;21924;51.934;7.414;2022-12-24T03:59:12;23.23;;;5.60;;
35803;SDS011;21924;51.934;7.414;2022-12-24T04:01:56;31.27;;;5.97;;
35803;SDS011;21924;51.934;7.414;2022-12-24T04:04:41;32.63;;;6.68;;
35803;SDS011;21924;51.934;7.414;2022-12-24T04:07:25;35.13;;;8.00;;
35803;SDS011;21924;51.934;7.414;2022-12-24T04:10:09;37.33;;;8.93;;
35803;SDS011;21924;51.934;7.414;2022-12-24T04:12:54;26.30;;;7.07;;
35803;SDS011;21924;51.934;7.414;2022-12-24T04:15:38;25.60;;;6.55;;
35803;SDS011;21924;51.934;7.414;2022-12-24T04:18:23;29.45;;;6.82;;
35803;SDS011;21924;51.934;7.414;2022-12-24T04:21:07;23.60;;;7.80;;
35803;SDS011;21924;51.934;7.414;2022-12-24T04:23:52;39.88;;;8.02;;
35803;SDS011;21924;51.934;7.414;2022-12-24T04:26:36;41.10;;;7.40;;
35803;SDS011;21924;51.934;7.414;2022-12-24T04:29:20;34.53;;;9.18;;
35803;SDS011;21924;51.934;7.414;2022-12-24T04:32:05;32.60;;;8.65;;
35803;SDS011;21924;51.934;7.414;2022-12-24T04:34:49;33.00;;;7.28;;
35803;SDS011;21924;51.934;7.414;2022-12-24T04:37:33;38.15;;;7.32;;
35803;SDS011;21924;51.934;7.414;2022-12-24T04:40:18;24.48;;;6.30;;
35803;SDS011;21924;51.934;7.414;2022-12-24T04:43:02;48.25;;;8.95;;
35803;SDS011;21924;51.934;7.414;2022-12-24T04:45:46;34.85;;;7.75;;
35803;SDS011;21924;51.934;7.414;2022-12-24T04:48:30;30.45;;;7.57;;
35803;SDS011;21924;51.934;7.414;2022-12-24T04:51:15;46.28;;;8.95;;
35803;SDS011;21924;51.934;7.414;2022-12-24T04:54:00;33.53;;;9.27;;
35803;SDS011;21924;51.934;7.414;2022-12-24T04:56:44;24.83;;;7.10;;
35803;SDS011;21924;51.934;7.414;2022-12-24T04:59:28;41.03;;;10.30;;
35803;SDS011;21924;51.934;7.414;2022-12-24T05:02:13;33.38;;;8.30;;
35803;SDS011;21924;51.934;7.414;2022-12-24T05:04:57;30.77;;;8.07;;
35803;SDS011;21924;51.934;7.414;2022-12-24T05:07:41;32.65;;;8.43;;
35803;SDS011;21924;51.934;7.414;2022-12-24T05:10:25;43.65;;;9.32;;
35803;SDS011;21924;51.934;7.414;2022-12-24T05:13:10;33.22;;;9.38;;
35803;SDS011;21924;51.934;7.414;2022-12-24T05:15:54;41.30;;;9.48;;
35803;SDS011;21924;51.934;7.414;2022-12-24T05:18:38;43.08;;;9.63;;
35803;SDS011;21924;51.934;7.414;2022-12-24T05:21:23;39.13;;;9.25;;
35803;SDS011;21924;51.934;7.414;2022-12-24T05:24:09;24.48;;;8.60;;
35803;SDS011;21924;51.934;7.414;2022-12-24T05:27:12;34.57;;;8.33;;
35803;SDS011;21924;51.934;7.414;2022-12-24T05:29:57;38.50;;;9.55;;
35803;SDS011;21924;51.934;7.414;2022-12-24T05:32:41;27.23;;;8.18;;
35803;SDS011;21924;51.934;7.414;2022-12-24T05:35:26;36.42;;;8.38;;
35803;SDS011;21924;51.934;7.414;2022-12-24T05:38:10;47.05;;;10.10;;
35803;SDS011;21924;51.934;7.414;2022-12-24T05:40:54;39.72;;;8.82;;
35803;SDS011;21924;51.934;7.414;2022-12-24T05:43:38;40.05;;;8.32;;
35803;SDS011;21924;51.934;7.414;2022-12-24T05:46:23;34.42;;;8.35;;
35803;SDS011;21924;51.934;7.414;2022-12-24T05:49:08;29.55;;;7.78;;
35803;SDS011;21924;51.934;7.414;2022-12-24T05:51:52;40.92;;;8.57;;
35803;SDS011;21924;51.934;7.414;2022-12-24T05:54:36;39.45;;;7.80;;
35803;SDS011;21924;51.934;7.414;2022-12-24T05:57:20;30.15;;;7.45;;
35803;SDS011;21924;51.934;7.414;2022-12-24T06:00:05;34.28;;;8.32;;
35803;SDS011;21924;51.934;7.414;2022-12-24T06:02:49;38.65;;;8.88;;
35803;SDS011;21924;51.934;7.414;2022-12-24T06:05:34;32.10;;;8.55;;
35803;SDS011;21924;51.934;7.414;2022-12-24T06:08:18;29.30;;;8.95;;
35803;SDS011;21924;51.934;7.414;2022-12-24T06:11:03;35.08;;;9.23;;
35803;SDS011;21924;51.934;7.414;2022-12-24T06:13:50;35.47;;;9.35;;
35803;SDS011;21924;51.934;7.414;2022-12-24T06:16:36;28.88;;;8.50;;
35803;SDS011;21924;51.934;7.414;2022-12-24T06:19:20;31.33;;;8.10;;
35803;SDS011;21924;51.934;7.414;2022-12-24T06:22:04;41.42;;;10.65;;
35803;SDS011;21924;51.934;7.414;2022-12-24T06:24:49;33.28;;;9.18;;
35803;SDS011;21924;51.934;7.414;2022-12-24T06:27:33;34.65;;;8.27;;
35803;SDS011;21924;51.934;7.414;2022-12-24T06:30:17;34.50;;;7.95;;
35803;SDS011;21924;51.934;7.414;2022-12-24T06:33:01;25.45;;;7.07;;
35803;SDS011;21924;51.934;7.414;2022-12-24T06:35:46;26.45;;;8.40;;
35803;SDS011;21924;51.934;7.414;2022-12-24T06:38:31;31.95;;;7.28;;
35803;SDS011;21924;51.934;7.414;2022-12-24T06:41:15;31.00;;;8.00;;
35803;SDS011;21924;51.934;7.414;2022-12-24T06:44:00;40.90;;;7.35;;
35803;SDS011;21924;51.934;7.414;2022-12-24T06:46:44;34.40;;;8.95;;
35803;SDS011;21924;51.934;7.414;2022-12-24T06:49:29;33.22;;;7.88;;
35803;SDS011;21924;51.934;7.414;2022-12-24T06:52:13;28.90;;;6.85;;
35803;SDS011;21924;51.934;7.414;2022-12-24T06:54:57;23.95;;;7.68;;
35803;SDS011;21924;51.934;7.414;2022-12-24T06:57:41;27.63;;;8.20;;
35803;SDS011;21924;51.934;7.414;2022-12-24T07:00:26;38.42;;;8.85;;
35803;SDS011;21924;51.934;7.414;2022-12-24T07:03:10;29.98;;;7.43;;
35803;SDS011;21924;51.934;7.414;2022-12-24T07:05:54;26.77;;;7.85;;
35803;SDS011;21924;51.934;7.414;2022-12-24T07:08:38;30.38;;;7.88;;
35803;SDS011;21924;51.934;7.414;2022-12-24T07:11:23;37.70;;;9.45;;
35803;SDS011;21924;51.934;7.414;2022-12-24T07:14:08;41.05;;;9.23;;
35803;SDS011;21924;51.934;7.414;2022-12-24T07:16:52;27.88;;;7.88;;
35803;SDS011;21924;51.934;7.414;2022-12-24T07:19:37;29.98;;;7.57;;
35803;SDS011;21924;51.934;7.414;2022-12-24T07:22:21;39.72;;;9.25;;
35803;SDS011;21924;51.934;7.414;2022-12-24T07:25:06;37.28;;;8.35;;
35803;SDS011;21924;51.934;7.414;2022-12-24T07:27:50;33.97;;;7.63;;
35803;SDS011;21924;51.934;7.414;2022-12-24T07:30:35;27.80;;;8.27;;
35803;SDS011;21924;51.934;7.414;2022-12-24T07:33:19;28.17;;;8.77;;
35803;SDS011;21924;51.934;7.414;2022-12-24T07:36:04;40.10;;;9.05;;
35803;SDS011;21924;51.934;7.414;2022-12-24T07:38:50;32.90;;;9.15;;
35803;SDS011;21924;51.934;7.414;2022-12-24T07:41:35;30.58;;;9.05;;
35803;SDS011;21924;51.934;7.414;2022-12-24T07:44:19;22.20;;;7.68;;
35803;SDS011;21924;51.934;7.414;2022-12-24T07:47:03;39.28;;;8.98;;
35803;SDS011;21924;51.934;7.414;2022-12-24T07:49:47;32.60;;;7.38;;
35803;SDS011;21924;51.934;7.414;2022-12-24T07:52:32;28.92;;;7.50;;
35803;SDS011;21924;51.934;7.414;2022-12-24T07:55:16;41.97;;;7.63;;
35803;SDS011;21924;51.934;7.414;2022-12-24T07:58:00;30.10;;;8.43;;
35803;SDS011;21924;51.934;7.414;2022-12-24T08:00:44;31.88;;;8.25;;
35803;SDS011;21924;51.934;7.414;2022-12-24T08:03:29;36.53;;;8.88;;
35803;SDS011;21924;51.934;7.414;2022-12-24T08:06:13;31.92;;;7.95;;
35803;SDS011;21924;51.934;7.414;2022-12-24T08:08:57;35.97;;;9.27;;
35803;SDS011;21924;51.934;7.414;2022-12-24T08:11:42;27.92;;;7.97;;
35803;SDS011;21924;51.934;7.414;2022-12-24T08:14:26;24.23;;;7.70;;
35803;SDS011;21924;51.934;7.414;2022-12-24T08:17:11;38.10;;;9.50;;
35803;SDS011;21924;51.934;7.414;2022-12-24T08:19:55;38.15;;;10.00;;
35803;SDS011;21924;51.934;7.414;2022-12-24T08:22:40;33.50;;;9.70;;
35803;SDS011;21924;51.934;7.414;2022-12-24T08:25:24;37.40;;;8.48;;
35803;SDS011;21924;51.934;7.414;2022-12-24T08:28:08;35.33;;;8.88;;
35803;SDS011;21924;51.934;7.414;2022-12-24T08:30:53;39.35;;;9.27;;
35803;SDS011;21924;51.934;7.414;2022-12-24T08:33:37;32.95;;;7.88;;
35803;SDS011;21924;51.934;7.414;2022-12-24T08:36:22;33.95;;;10.20;;
35803;SDS011;21924;51.934;7.414;2022-12-24T08:39:06;34.33;;;9.18;;
35803;SDS011;21924;51.934;7.414;2022-12-24T08:41:51;36.35;;;7.30;;
35803;SDS011;21924;51.934;7.414;2022-12-24T08:44:35;31.20;;;8.18;;
35803;SDS011;21924;51.934;7.414;2022-12-24T08:47:20;37.20;;;7.90;;
35803;SDS011;21924;51.934;7.414;2022-12-24T08:50:04;34.60;;;9.10;;
35803;SDS011;21924;51.934;7.414;2022-12-24T08:52:49;29.63;;;9.68;;
35803;SDS011;21924;51.934;7.414;2022-12-24T08:55:33;37.00;;;9.75;;
35803;SDS011;21924;51.934;7.414;2022-12-24T08:58:17;29.33;;;8.13;;
35803;SDS011;21924;51.934;7.414;2022-12-24T09:01:08;30.13;;;9.15;;
35803;SDS011;21924;51.934;7.414;2022-12-24T09:03:54;36.63;;;8.68;;
35803;SDS011;21924;51.934;7.414;2022-12-24T09:06:38;26.95;;;8.57;;
35803;SDS011;21924;51.934;7.414;2022-12-24T09:09:23;31.23;;;8.00;;
35803;SDS011;21924;51.934;7.414;2022-12-24T09:12:07;30.30;;;8.85;;
35803;SDS011;21924;51.934;7.414;2022-12-24T09:14:52;34.75;;;7.60;;
35803;SDS011;21924;51.934;7.414;2022-12-24T09:17:37;28.92;;;8.48;;
35803;SDS011;21924;51.934;7.414;2022-12-24T09:20:21;34.92;;;7.80;;
35803;SDS011;21924;51.934;7.414;2022-12-24T09:23:06;27.42;;;8.18;;
35803;SDS011;21924;51.934;7.414;2022-12-24T09:25:50;30.35;;;7.88;;
35803;SDS011;21924;51.934;7.414;2022-12-24T09:28:34;25.45;;;7.28;;
35803;SDS011;21924;51.934;7.414;2022-12-24T09:31:18;28.35;;;8.02;;
35803;SDS011;21924;51.934;7.414;2022-12-24T09:34:04;38.72;;;7.82;;
35803;SDS011;21924;51.934;7.414;2022-12-24T09:36:48;27.52;;;7.32;;
35803;SDS011;21924;51.934;7.414;2022-12-24T09:39:34;30.48;;;7.75;;
35803;SDS011;21924;51.934;7.414;2022-12-24T09:45:27;24.63;;;7.20;;
35803;SDS011;21924;51.934;7.414;2022-12-24T09:48:16;33.53;;;6.72;;
35803;SDS011;21924;51.934;7.414;2022-12-24T09:53:54;24.88;;;7.22;;
35803;SDS011;21924;51.934;7.414;2022-12-24T09:56:55;24.20;;;6.60;;
35803;SDS011;21924;51.934;7.414;2022-12-24T09:59:44;28.50;;;8.57;;
35803;SDS011;21924;51.934;7.414;2022-12-24T10:02:29;27.27;;;7.80;;
35803;SDS011;21924;51.934;7.414;2022-12-24T10:05:15;31.00;;;7.80;;
35803;SDS011;21924;51.934;7.414;2022-12-24T10:08:04;20.80;;;6.32;;
35803;SDS011;21924;51.934;7.414;2022-12-24T10:11:51;27.42;;;7.43;;
35803;SDS011;21924;51.934;7.414;2022-12-24T10:14:45;33.90;;;6.78;;
35803;SDS011;21924;51.934;7.414;2022-12-24T10:21:00;37.78;;;8.35;;
35803;SDS011;21924;51.934;7.414;2022-12-24T10:26:57;26.92;;;6.53;;
35803;SDS011;21924;51.934;7.414;2022-12-24T10:29:46;24.83;;;6.68;;
35803;SDS011;21924;51.934;7.414;2022-12-24T10:32:35;29.33;;;7.40;;
35803;SDS011;21924;51.934;7.414;2022-12-24T10:35:21;28.45;;;6.63;;
35803;SDS011;21924;51.934;7.414;2022-12-24T10:38:12;27.00;;;7.85;;
35803;SDS011;21924;51.934;7.414;2022-12-24T10:40:56;36.03;;;8.23;;
35803;SDS011;21924;51.934;7.414;2022-12-24T10:43:43;33.63;;;9.00;;
35803;SDS011;21924;51.934;7.414;2022-12-24T10:49:30;31.73;;;8.50;;
35803;SDS011;21924;51.934;7.414;2022-12-24T10:52:31;34.50;;;8.07;;
35803;SDS011;21924;51.934;7.414;2022-12-24T10:55:21;36.78;;;7.95;;
35803;SDS011;21924;51.934;7.414;2022-12-24T11:00:56;36.15;;;7.93;;
35803;SDS011;21924;51.934;7.414;2022-12-24T11:03:40;31.27;;;11.65;;
35803;SDS011;21924;51.934;7.414;2022-12-24T11:06:25;31.00;;;8.07;;
35803;SDS011;21924;51.934;7.414;2022-12-24T11:09:21;41.65;;;8.60;;
35803;SDS011;21924;51.934;7.414;2022-12-24T11:12:21;29.35;;;8.77;;
35803;SDS011;21924;51.934;7.414;2022-12-24T11:15:23;28.73;;;7.97;;
35803;SDS011;21924;51.934;7.414;2022-12-24T11:18:12;32.55;;;7.78;;
35803;SDS011;21924;51.934;7.414;2022-12-24T11:20:57;39.30;;;8.68;;
35803;SDS011;21924;51.934;7.414;2022-12-24T11:23:47;31.73;;;8.35;;
35803;SDS011;21924;51.934;7.414;2022-12-24T11:26:34;28.17;;;8.45;;
35803;SDS011;21924;51.934;7.414;2022-12-24T11:32:20;42.22;;;8.27;;
35803;SDS011;21924;51.934;7.414;2022-12-24T11:35:06;30.15;;;7.68;;
35803;SDS011;21924;51.934;7.414;2022-12-24T11:40:46;25.17;;;7.47;;
35803;SDS011;21924;51.934;7.414;2022-12-24T11:43:34;39.90;;;8.57;;
35803;SDS011;21924;51.934;7.414;2022-12-24T11:55:02;25.58;;;7.65;;
35803;SDS011;21924;51.934;7.414;2022-12-24T12:01:33;31.95;;;8.02;;
35803;SDS011;21924;51.934;7.414;2022-12-24T12:04:29;40.65;;;7.93;;
35803;SDS011;21924;51.934;7.414;2022-12-24T12:07:17;32.63;;;7.40;;
35803;SDS011;21924;51.934;7.414;2022-12-24T12:10:16;30.50;;;7.28;;
35803;SDS011;21924;51.934;7.414;2022-12-24T12:13:10;29.70;;;7.32;;
35803;SDS011;21924;51.934;7.414;2022-12-24T12:16:06;31.52;;;7.70;;
35803;SDS011;21924;51.934;7.414;2022-12-24T12:19:01;35.95;;;7.13;;
35803;SDS011;21924;51.934;7.414;2022-12-24T12:21:47;35.05;;;9.02;;
35803;SDS011;21924;51.934;7.414;2022-12-24T12:24:35;34.55;;;9.35;;
35803;SDS011;21924;51.934;7.414;2022-12-24T12:27:36;32.63;;;6.75;;
35803;SDS011;21924;51.934;7.414;2022-12-24T12:30:26;34.20;;;7.53;;
35803;SDS011;21924;51.934;7.414;2022-12-24T12:33:25;29.80;;;7.93;;
35803;SDS011;21924;51.934;7.414;2022-12-24T12:36:22;37.50;;;8.63;;
35803;SDS011;21924;51.934;7.414;2022-12-24T12:39:12;29.63;;;8.45;;
35803;SDS011;21924;51.934;7.414;2022-12-24T12:51:04;32.97;;;8.57;;
35803;SDS011;21924;51.934;7.414;2022-12-24T12:54:01;25.00;;;7.70;;
35803;SDS011;21924;51.934;7.414;2022-12-24T12:57:00;34.67;;;10.57;;
35803;SDS011;21924;51.934;7.414;2022-12-24T13:00:04;41.80;;;9.57;;
35803;SDS011;21924;51.934;7.414;2022-12-24T13:02:55;28.48;;;8.80;;
35803;SDS011;21924;51.934;7.414;2022-12-24T13:09:21;22.92;;;8.02;;
35803;SDS011;21924;51.934;7.414;2022-12-24T13:15:41;40.55;;;8.98;;
35803;SDS011;21924;51.934;7.414;2022-12-24T13:21:46;25.48;;;6.82;;
35803;SDS011;21924;51.934;7.414;2022-12-24T13:24:32;28.47;;;7.73;;
35803;SDS011;21924;51.934;7.414;2022-12-24T13:27:25;28.35;;;7.85;;
35803;SDS011;21924;51.934;7.414;2022-12-24T13:36:16;40.75;;;7.38;;
35803;SDS011;21924;51.934;7.414;2022-12-24T13:39:02;29.83;;;6.82;;
35803;SDS011;21924;51.934;7.414;2022-12-24T13:41:49;22.77;;;7.00;;
35803;SDS011;21924;51.934;7.414;2022-12-24T13:44:34;25.80;;;6.00;;
35803;SDS011;21924;51.934;7.414;2022-12-24T13:47:19;35.53;;;7.53;;
35803;SDS011;21924;51.934;7.414;2022-12-24T13:50:13;18.73;;;5.88;;
35803;SDS011;21924;51.934;7.414;2022-12-24T13:53:17;20.83;;;6.25;;
35803;SDS011;21924;51.934;7.414;2022-12-24T13:56:24;38.03;;;8.90;;
35803;SDS011;21924;51.934;7.414;2022-12-24T13:59:26;31.45;;;7.70;;
35803;SDS011;21924;51.934;7.414;2022-12-24T14:02:18;27.20;;;7.70;;
35803;SDS011;21924;51.934;7.414;2022-12-24T14:05:05;23.77;;;6.60;;
35803;SDS011;21924;51.934;7.414;2022-12-24T14:08:00;25.30;;;7.83;;
35803;SDS011;21924;51.934;7.414;2022-12-24T14:13:54;34.72;;;7.57;;
35803;SDS011;21924;51.934;7.414;2022-12-24T14:16:54;27.58;;;8.10;;
35803;SDS011;21924;51.934;7.414;2022-12-24T14:19:58;38.97;;;11.77;;
35803;SDS011;21924;51.934;7.414;2022-12-24T14:22:44;47.28;;;14.38;;
35803;SDS011;21924;51.934;7.414;2022-12-24T14:25:29;23.57;;;8.80;;
35803;SDS011;21924;51.934;7.414;2022-12-24T14:28:15;28.48;;;10.88;;
35803;SDS011;21924;51.934;7.414;2022-12-24T14:31:12;38.45;;;11.43;;
35803;SDS011;21924;51.934;7.414;2022-12-24T14:34:04;25.80;;;8.68;;
35803;SDS011;21924;51.934;7.414;2022-12-24T14:36:52;28.75;;;10.80;;
35803;SDS011;21924;51.934;7.414;2022-12-24T14:39:40;36.47;;;9.80;;
35803;SDS011;21924;51.934;7.414;2022-12-24T14:42:48;24.52;;;9.63;;
35803;SDS011;21924;51.934;7.414;2022-12-24T14:58:32;31.70;;;7.40;;
35803;SDS011;21924;51.934;7.414;2022-12-24T15:01:24;28.52;;;7.00;;
35803;SDS011;21924;51.934;7.414;2022-12-24T15:06:54;20.80;;;7.40;;
35803;SDS011;21924;51.934;7.414;2022-12-24T15:09:40;27.73;;;9.38;;
35803;SDS011;21924;51.934;7.414;2022-12-24T15:12:26;28.88;;;10.55;;
35803;SDS011;21924;51.934;7.414;2022-12-24T15:15:14;37.70;;;9.25;;
35803;SDS011;21924;51.934;7.414;2022-12-24T15:18:00;38.85;;;11.18;;
35803;SDS011;21924;51.934;7.414;2022-12-24T15:20:47;26.92;;;9.98;;
35803;SDS011;21924;51.934;7.414;2022-12-24T15:23:35;26.63;;;9.23;;
35803;SDS011;21924;51.934;7.414;2022-12-24T15:26:21;35.67;;;11.07;;
35803;SDS011;21924;51.934;7.414;2022-12-24T15:29:27;28.48;;;10.35;;
35803;SDS011;21924;51.934;7.414;2022-12-24T15:32:16;40.45;;;9.93;;
35803;SDS011;21924;51.934;7.414;2022-12-24T15:35:02;29.73;;;9.15;;
35803;SDS011;21924;51.934;7.414;2022-12-24T15:37:47;19.98;;;8.45;;
35803;SDS011;21924;51.934;7.414;2022-12-24T15:40:31;27.45;;;8.32;;
35803;SDS011;21924;51.934;7.414;2022-12-24T15:43:17;28.05;;;9.48;;
35803;SDS011;21924;51.934;7.414;2022-12-24T15:46:02;43.15;;;10.55;;
35803;SDS011;21924;51.934;7.414;2022-12-24T15:48:47;20.55;;;10.20;;
35803;SDS011;21924;51.934;7.414;2022-12-24T15:51:32;34.78;;;9.00;;
35803;SDS011;21924;51.934;7.414;2022-12-24T15:54:20;34.28;;;8.68;;
35803;SDS011;21924;51.934;7.414;2022-12-24T15:57:20;26.73;;;8.55;;
35803;SDS011;21924;51.934;7.414;2022-12-24T16:00:17;24.17;;;8.20;;
35803;SDS011;21924;51.934;7.414;2022-12-24T16:03:17;19.88;;;6.93;;
35803;SDS011;21924;51.934;7.414;2022-12-24T16:06:04;25.23;;;7.63;;
35803;SDS011;21924;51.934;7.414;2022-12-24T16:08:48;22.92;;;7.95;;
35803;SDS011;21924;51.934;7.414;2022-12-24T16:11:36;24.15;;;9.45;;
35803;SDS011;21924;51.934;7.414;2022-12-24T16:14:20;30.95;;;9.75;;
35803;SDS011;21924;51.934;7.414;2022-12-24T16:17:10;32.75;;;12.05;;
35803;SDS011;21924;51.934;7.414;2022-12-24T16:20:04;34.28;;;12.95;;
35803;SDS011;21924;51.934;7.414;2022-12-24T16:22:58;45.97;;;15.75;;
35803;SDS011;21924;51.934;7.414;2022-12-24T16:25:42;44.55;;;13.35;;
35803;SDS011;21924;51.934;7.414;2022-12-24T16:28:27;43.33;;;11.98;;
35803;SDS011;21924;51.934;7.414;2022-12-24T16:31:18;32.95;;;9.80;;
35803;SDS011;21924;51.934;7.414;2022-12-24T16:34:15;34.13;;;10.57;;
35803;SDS011;21924;51.934;7.414;2022-12-24T16:37:00;31.65;;;10.32;;
35803;SDS011;21924;51.934;7.414;2022-12-24T16:39:45;35.65;;;11.13;;
35803;SDS011;21924;51.934;7.414;2022-12-24T16:42:29;30.17;;;10.40;;
35803;SDS011;21924;51.934;7.414;2022-12-24T16:45:33;24.90;;;9.48;;
35803;SDS011;21924;51.934;7.414;2022-12-24T16:48:20;41.22;;;11.88;;
35803;SDS011;21924;51.934;7.414;2022-12-24T16:51:06;30.42;;;11.02;;
35803;SDS011;21924;51.934;7.414;2022-12-24T16:53:51;26.58;;;11.05;;
35803;SDS011;21924;51.934;7.414;2022-12-24T16:56:35;30.52;;;10.52;;
35803;SDS011;21924;51.934;7.414;2022-12-24T16:59:21;44.78;;;11.15;;
35803;SDS011;21924;51.934;7.414;2022-12-24T17:02:06;38.97;;;12.75;;
35803;SDS011;21924;51.934;7.414;2022-12-24T17:04:53;36.08;;;11.35;;
35803;SDS011;21924;51.934;7.414;2022-12-24T17:07:38;30.63;;;11.25;;
35803;SDS011;21924;51.934;7.414;2022-12-24T17:10:22;32.95;;;12.65;;
35803;SDS011;21924;51.934;7.414;2022-12-24T17:13:06;27.38;;;10.02;;
35803;SDS011;21924;51.934;7.414;2022-12-24T17:15:51;27.05;;;11.18;;
35803;SDS011;21924;51.934;7.414;2022-12-24T17:18:35;27.58;;;11.35;;
35803;SDS011;21924;51.934;7.414;2022-12-24T17:21:19;28.60;;;11.07;;
35803;SDS011;21924;51.934;7.414;2022-12-24T17:24:04;42.08;;;10.55;;
35803;SDS011;21924;51.934;7.414;2022-12-24T17:26:48;34.90;;;11.48;;
35803;SDS011;21924;51.934;7.414;2022-12-24T17:29:32;35.40;;;11.23;;
35803;SDS011;21924;51.934;7.414;2022-12-24T17:32:17;31.98;;;10.50;;
35803;SDS011;21924;51.934;7.414;2022-12-24T17:35:01;32.75;;;11.20;;
35803;SDS011;21924;51.934;7.414;2022-12-24T17:37:45;28.85;;;10.85;;
35803;SDS011;21924;51.934;7.414;2022-12-24T17:40:30;33.50;;;12.45;;
35803;SDS011;21924;51.934;7.414;2022-12-24T17:43:14;34.95;;;12.20;;
35803;SDS011;21924;51.934;7.414;2022-12-24T17:45:58;37.08;;;10.77;;
35803;SDS011;21924;51.934;7.414;2022-12-24T17:48:46;35.30;;;11.85;;
35803;SDS011;21924;51.934;7.414;2022-12-24T17:51:31;35.75;;;11.63;;
35803;SDS011;21924;51.934;7.414;2022-12-24T17:54:16;45.85;;;12.07;;
35803;SDS011;21924;51.934;7.414;2022-12-24T17:57:00;39.80;;;10.27;;
35803;SDS011;21924;51.934;7.414;2022-12-24T17:59:44;29.63;;;11.25;;
35803;SDS011;21924;51.934;7.414;2022-12-24T18:02:29;26.50;;;11.57;;
35803;SDS011;21924;51.934;7.414;2022-12-24T18:05:13;33.50;;;12.57;;
35803;SDS011;21924;51.934;7.414;2022-12-24T18:07:57;41.85;;;12.80;;
35803;SDS011;21924;51.934;7.414;2022-12-24T18:10:42;30.95;;;12.57;;
35803;SDS011;21924;51.934;7.414;2022-12-24T18:13:26;33.10;;;14.02;;
35803;SDS011;21924;51.934;7.414;2022-12-24T18:19:09;39.40;;;13.65;;
35803;SDS011;21924;51.934;7.414;2022-12-24T18:21:55;29.85;;;12.90;;
35803;SDS011;21924;51.934;7.414;2022-12-24T18:24:39;37.08;;;11.32;;
35803;SDS011;21924;51.934;7.414;2022-12-24T18:27:23;34.58;;;12.85;;
35803;SDS011;21924;51.934;7.414;2022-12-24T18:30:08;39.38;;;11.80;;